Time;durP1;ratioP1;P1;durP2;ratioP2;P2;SDS_P1;SDS_P2;PMS_P1;PMS_P2;Temp;Humidity;BMP_temperature;BMP_pressure;BME280_temperature;BME280_humidity;BME280_pressure;Samples;Min_cycle;Max_cycle;Signal;HPM_P1;HPM_P2
2022/11/23 00:00:35;;;;;;;4.17;2.40;;;;;;;5.52;100.00;98625.50;4995602;28;20231;-61
2022/11/23 00:03:01;;;;;;;7.47;2.90;;;;;;;5.51;100.00;98624.69;5022191;28;20207;-61
2022/11/23 00:05:27;;;;;;;7.07;2.40;;;;;;;5.44;100.00;98621.66;5035901;28;20650;-60
2022/11/23 00:07:52;;;;;;;6.13;2.73;;;;;;;5.42;100.00;98625.22;5017051;28;20267;-64
2022/11/23 00:10:18;;;;;;;6.53;2.60;;;;;;;5.50;100.00;98623.88;5024278;28;20200;-61
2022/11/23 00:12:43;;;;;;;4.53;2.83;;;;;;;5.44;100.00;98624.22;5017111;28;20228;-61
2022/11/23 00:15:11;;;;;;;9.90;2.80;;;;;;;5.34;100.00;98620.56;5007464;28;20188;-61
2022/11/23 00:17:37;;;;;;;7.53;3.10;;;;;;;5.37;100.00;98617.84;5033426;28;20685;-62
2022/11/23 00:20:03;;;;;;;7.13;2.73;;;;;;;5.36;100.00;98611.09;5032525;28;20181;-62
2022/11/23 00:22:29;;;;;;;9.00;3.07;;;;;;;5.37;100.00;98617.00;5033561;28;20667;-61
2022/11/23 00:24:54;;;;;;;4.43;2.40;;;;;;;5.47;100.00;98621.50;5035257;28;20630;-60
2022/11/23 00:27:19;;;;;;;9.30;2.93;;;;;;;5.37;100.00;98622.94;5034310;28;20263;-61
2022/11/23 00:29:45;;;;;;;6.63;2.63;;;;;;;5.59;100.00;98616.59;5035138;28;20550;-60
2022/11/23 00:32:10;;;;;;;6.33;2.83;;;;;;;5.61;100.00;98619.91;4986011;28;20219;-60
2022/11/23 00:34:35;;;;;;;7.57;3.50;;;;;;;5.66;100.00;98623.81;5015449;28;20176;-60
2022/11/23 00:37:00;;;;;;;8.30;2.57;;;;;;;5.71;100.00;98617.63;5014541;28;20198;-60
2022/11/23 00:39:26;;;;;;;10.13;2.90;;;;;;;5.73;100.00;98616.63;5015197;28;20243;-60
2022/11/23 00:41:51;;;;;;;4.17;2.60;;;;;;;5.74;100.00;98615.72;5018701;28;20749;-60
2022/11/23 00:44:16;;;;;;;5.90;2.30;;;;;;;5.70;100.00;98603.22;5033982;28;20208;-61
2022/11/23 00:46:42;;;;;;;4.17;2.70;;;;;;;5.71;100.00;98609.97;5034704;28;20632;-61
2022/11/23 00:49:07;;;;;;;11.43;2.50;;;;;;;5.78;100.00;98616.34;5034522;28;20203;-61
2022/11/23 00:51:35;;;;;;;8.03;2.13;;;;;;;5.87;100.00;98610.72;5023331;28;20294;-60
2022/11/23 00:54:02;;;;;;;8.27;2.60;;;;;;;5.97;100.00;98611.00;5016477;28;20213;-60
2022/11/23 00:56:29;;;;;;;11.97;2.60;;;;;;;5.90;100.00;98615.63;5015782;28;20188;-60
2022/11/23 00:58:56;;;;;;;8.43;2.70;;;;;;;5.94;100.00;98611.16;5016711;28;20530;-61
2022/11/23 01:01:24;;;;;;;9.00;2.53;;;;;;;5.93;100.00;98618.00;5006255;28;20238;-63
2022/11/23 01:03:53;;;;;;;6.63;2.50;;;;;;;6.15;100.00;98611.63;5020209;28;20682;-60
2022/11/23 01:06:25;;;;;;;3.50;2.10;;;;;;;6.01;100.00;98611.66;5015791;28;20674;-61
2022/11/23 01:08:58;;;;;;;8.10;2.37;;;;;;;6.08;100.00;98621.41;5034043;28;20680;-59
2022/11/23 01:11:26;;;;;;;5.90;2.30;;;;;;;6.16;100.00;98617.59;5023456;28;20225;-61
2022/11/23 01:13:52;;;;;;;7.57;2.20;;;;;;;6.25;100.00;98625.53;5016570;28;20242;-61
2022/11/23 01:16:20;;;;;;;7.33;2.67;;;;;;;6.09;100.00;98632.44;5033806;28;20593;-61
2022/11/23 01:18:45;;;;;;;11.63;2.40;;;;;;;6.06;100.00;98632.63;5013684;28;20190;-61
2022/11/23 01:21:11;;;;;;;7.97;2.70;;;;;;;6.21;100.00;98633.44;5022527;28;20218;-60
2022/11/23 01:23:36;;;;;;;4.90;2.43;;;;;;;6.06;100.00;98630.06;5033376;28;20589;-60
2022/11/23 01:26:07;;;;;;;7.07;2.53;;;;;;;5.98;100.00;98635.63;5034112;28;20187;-60
2022/11/23 01:28:33;;;;;;;6.63;2.27;;;;;;;6.00;100.00;98635.53;5033453;28;20649;-60
2022/11/23 01:31:08;;;;;;;9.63;2.50;;;;;;;5.92;100.00;98643.63;5014570;28;20225;-60
2022/11/23 01:33:36;;;;;;;7.20;2.27;;;;;;;5.85;100.00;98644.91;5025079;28;20275;-60
2022/11/23 01:36:13;;;;;;;6.57;2.37;;;;;;;5.84;100.00;98654.25;5033787;28;20196;-62
2022/11/23 01:38:39;;;;;;;5.80;2.50;;;;;;;5.85;100.00;98655.09;5012381;28;20269;-61
2022/11/23 01:41:07;;;;;;;4.17;2.10;;;;;;;5.81;100.00;98646.81;5013973;28;20217;-60
2022/11/23 01:43:32;;;;;;;7.97;2.23;;;;;;;5.78;100.00;98647.81;5015429;28;20186;-61
2022/11/23 01:45:59;;;;;;;6.47;2.30;;;;;;;5.92;100.00;98647.00;5015873;28;20662;-61
2022/11/23 01:48:29;;;;;;;9.23;2.17;;;;;;;5.91;100.00;98644.53;5031475;28;20182;-63
2022/11/23 01:50:57;;;;;;;12.73;3.30;;;;;;;5.90;100.00;98640.34;5010384;28;20387;-60
2022/11/23 01:53:23;;;;;;;5.23;2.00;;;;;;;5.84;100.00;98649.16;5029005;28;20269;-61
2022/11/23 01:55:50;;;;;;;10.87;2.53;;;;;;;5.85;100.00;98655.91;5031809;28;20183;-61
2022/11/23 01:58:21;;;;;;;8.70;2.50;;;;;;;5.85;100.00;98657.66;5027966;28;20289;-60
2022/11/23 02:00:48;;;;;;;8.27;2.50;;;;;;;5.92;100.00;98653.84;5005367;28;20303;-62
2022/11/23 02:03:14;;;;;;;10.30;2.57;;;;;;;5.96;100.00;98663.75;5015514;28;20216;-60
2022/11/23 02:05:44;;;;;;;8.17;2.73;;;;;;;5.99;100.00;98652.56;5033327;28;20525;-60
2022/11/23 02:08:11;;;;;;;10.40;2.90;;;;;;;5.88;100.00;98663.41;5011433;28;20689;-61
2022/11/23 02:10:36;;;;;;;7.73;2.33;;;;;;;5.85;100.00;98657.66;5000222;28;20239;-60
2022/11/23 02:13:05;;;;;;;5.97;2.90;;;;;;;5.90;100.00;98666.66;5011683;28;20213;-62
2022/11/23 02:15:32;;;;;;;9.53;2.70;;;;;;;5.94;100.00;98660.50;5011638;28;20177;-61
2022/11/23 02:17:59;;;;;;;8.30;2.73;;;;;;;5.94;100.00;98660.50;5011748;28;20189;-61
2022/11/23 02:20:25;;;;;;;10.30;3.27;;;;;;;5.92;100.00;98662.31;5000822;28;20581;-61
2022/11/23 02:23:03;;;;;;;6.73;2.67;;;;;;;5.85;100.00;98657.66;5032047;28;20199;-60
2022/11/23 02:25:42;;;;;;;6.47;2.53;;;;;;;5.91;100.00;98653.00;5032684;28;20192;-61
2022/11/23 02:28:10;;;;;;;8.40;2.37;;;;;;;5.91;100.00;98657.28;5010439;28;20196;-61
2022/11/23 02:30:38;;;;;;;7.27;2.63;;;;;;;5.74;100.00;98646.34;5001546;28;20247;-61
2022/11/23 02:33:07;;;;;;;8.97;2.83;;;;;;;5.74;100.00;98654.00;5009491;28;20344;-60
2022/11/23 02:35:33;;;;;;;9.10;2.60;;;;;;;5.79;100.00;98656.28;5033128;28;20193;-62
2022/11/23 02:38:04;;;;;;;9.67;2.73;;;;;;;5.77;100.00;98653.81;5031694;28;20189;-62
2022/11/23 02:40:33;;;;;;;4.87;2.63;;;;;;;5.70;100.00;98654.25;5003405;28;20234;-61
2022/11/23 02:42:59;;;;;;;7.27;2.60;;;;;;;5.63;100.00;98654.63;5011735;28;20180;-61
2022/11/23 02:45:49;;;;;;;10.90;3.27;;;;;;;5.58;100.00;98661.72;5013895;28;20185;-61
2022/11/23 02:48:15;;;;;;;6.23;2.53;;;;;;;5.60;100.00;98653.97;5013911;28;20690;-60
2022/11/23 02:50:40;;;;;;;5.70;2.63;;;;;;;5.62;100.00;98650.41;5001185;28;20239;-61
2022/11/23 02:53:06;;;;;;;4.53;2.50;;;;;;;5.61;100.00;98653.88;5031044;28;20220;-61
2022/11/23 02:55:31;;;;;;;7.77;2.63;;;;;;;5.70;100.00;98657.63;5014667;28;20189;-60
2022/11/23 02:57:57;;;;;;;9.67;2.60;;;;;;;5.59;100.00;98655.69;5031469;28;20203;-60
2022/11/23 03:00:22;;;;;;;7.47;2.90;;;;;;;5.45;100.00;98651.38;5021438;28;20284;-62
2022/11/23 03:02:47;;;;;;;10.60;3.00;;;;;;;5.50;100.00;98657.03;5030821;28;20215;-62
2022/11/23 03:05:13;;;;;;;6.50;2.90;;;;;;;5.41;100.00;98656.72;5032190;28;20252;-61
2022/11/23 03:07:38;;;;;;;4.57;2.97;;;;;;;5.45;100.00;98653.91;5031228;28;20781;-60
2022/11/23 03:10:04;;;;;;;11.93;3.57;;;;;;;5.53;100.00;98655.22;5022305;28;20192;-61
2022/11/23 03:12:29;;;;;;;8.27;2.60;;;;;;;5.63;100.00;98657.16;5030535;28;20223;-61
2022/11/23 03:14:55;;;;;;;6.17;2.33;;;;;;;5.66;100.00;98649.31;5032001;28;20216;-61
2022/11/23 03:17:20;;;;;;;9.40;2.67;;;;;;;5.60;100.00;98649.66;5031441;28;20190;-61
2022/11/23 03:19:46;;;;;;;12.37;3.83;;;;;;;5.50;100.00;98654.47;5031963;28;20217;-61
2022/11/23 03:22:11;;;;;;;8.20;3.40;;;;;;;5.63;100.00;98652.06;5019877;28;20356;-61
2022/11/23 03:24:36;;;;;;;6.03;2.87;;;;;;;5.67;100.00;98652.72;5031155;28;20200;-61
2022/11/23 03:27:01;;;;;;;6.00;2.73;;;;;;;5.79;100.00;98657.09;5031797;28;20216;-61
2022/11/23 03:29:27;;;;;;;5.00;2.80;;;;;;;5.90;100.00;98648.00;5032000;28;20224;-61
2022/11/23 03:31:53;;;;;;;9.07;3.43;;;;;;;5.80;100.00;98653.66;5020377;28;20305;-61
2022/11/23 03:34:18;;;;;;;11.20;3.50;;;;;;;5.79;100.00;98649.44;5013354;28;20193;-61
2022/11/23 03:36:44;;;;;;;10.87;3.10;;;;;;;5.75;100.00;98657.38;5030997;28;20186;-61
2022/11/23 03:39:09;;;;;;;8.57;3.27;;;;;;;5.77;100.00;98661.47;5031847;28;20184;-60
2022/11/23 03:41:35;;;;;;;8.53;2.97;;;;;;;5.80;100.00;98661.31;5020614;28;20225;-61
2022/11/23 03:44:00;;;;;;;10.00;2.93;;;;;;;5.88;100.00;98654.91;5030345;28;20183;-61
2022/11/23 03:46:25;;;;;;;6.10;2.30;;;;;;;5.79;100.00;98652.00;5030931;28;20231;-61
2022/11/23 03:48:51;;;;;;;8.40;3.10;;;;;;;6.00;100.00;98661.06;5028544;28;20264;-61
2022/11/23 03:51:16;;;;;;;7.87;2.63;;;;;;;5.94;100.00;98655.38;5020547;28;20289;-62
2022/11/23 03:53:41;;;;;;;6.30;2.53;;;;;;;6.07;100.00;98654.69;5030763;28;20586;-61
2022/11/23 03:56:07;;;;;;;5.23;2.37;;;;;;;6.18;100.00;98647.22;5013689;28;20207;-60
2022/11/23 03:58:32;;;;;;;8.37;2.87;;;;;;;6.34;100.00;98651.41;5013012;28;20707;-61
2022/11/23 04:00:58;;;;;;;8.40;2.90;;;;;;;6.44;100.00;98653.31;5009974;28;20303;-61
2022/11/23 04:03:23;;;;;;;8.77;2.80;;;;;;;6.49;100.00;98652.19;5018371;28;20212;-61
2022/11/23 04:05:48;;;;;;;7.93;3.00;;;;;;;6.32;100.00;98651.50;5031162;28;20189;-61
2022/11/23 04:08:14;;;;;;;9.37;3.23;;;;;;;6.24;100.00;98654.50;5012599;28;20312;-61
2022/11/23 04:10:39;;;;;;;9.53;2.97;;;;;;;6.44;100.00;98655.06;5025626;28;20237;-63
2022/11/23 04:13:04;;;;;;;10.33;2.60;;;;;;;6.38;100.00;98658.78;5041838;28;20213;-61
2022/11/23 04:15:30;;;;;;;6.03;2.40;;;;;;;6.36;100.00;98652.94;5024329;28;20254;-61
2022/11/23 04:17:55;;;;;;;8.60;2.63;;;;;;;6.52;100.00;98657.13;5025935;28;20564;-61
2022/11/23 04:20:21;;;;;;;11.20;3.07;;;;;;;6.50;100.00;98656.41;5023173;28;20185;-61
2022/11/23 04:22:46;;;;;;;11.57;3.67;;;;;;;6.58;100.00;98654.22;5027230;28;20574;-61
2022/11/23 04:25:11;;;;;;;13.17;2.33;;;;;;;6.65;100.00;98654.63;5046602;28;20200;-62
2022/11/23 04:27:37;;;;;;;11.90;2.80;;;;;;;6.62;100.00;98655.66;5030779;28;20195;-61
2022/11/23 04:30:03;;;;;;;7.13;2.33;;;;;;;6.56;100.00;98650.91;5029177;28;20524;-63
2022/11/23 04:32:28;;;;;;;8.23;2.33;;;;;;;6.61;100.00;98652.28;4976398;28;20222;-62
2022/11/23 04:34:53;;;;;;;10.80;2.27;;;;;;;6.63;100.00;98647.06;5030903;28;20697;-62
2022/11/23 04:37:19;;;;;;;7.67;2.40;;;;;;;6.51;100.00;98648.66;5033508;28;20190;-61
2022/11/23 04:39:44;;;;;;;15.43;3.50;;;;;;;6.57;100.00;98648.28;5033542;28;20544;-61
2022/11/23 04:42:11;;;;;;;9.17;2.73;;;;;;;6.74;100.00;98647.22;5038930;28;20243;-61
2022/11/23 04:44:36;;;;;;;10.63;2.67;;;;;;;6.78;100.00;98650.41;5016379;28;20186;-61
2022/11/23 04:47:01;;;;;;;11.87;2.90;;;;;;;6.53;100.00;98643.44;5024414;28;20715;-60
2022/11/23 04:49:27;;;;;;;13.47;3.33;;;;;;;6.34;100.00;98646.28;5029384;28;20653;-61
2022/11/23 04:51:52;;;;;;;10.83;2.83;;;;;;;6.32;100.00;98653.25;5038662;28;20231;-61
2022/11/23 04:54:17;;;;;;;7.00;2.43;;;;;;;6.51;100.00;98652.94;5036093;28;20500;-61
2022/11/23 04:56:53;;;;;;;15.30;3.30;;;;;;;6.47;100.00;98654.84;5049470;28;20177;-60
2022/11/23 04:59:18;;;;;;;16.83;3.17;;;;;;;6.36;100.00;98655.50;5034537;28;20196;-60
2022/11/23 05:01:43;;;;;;;12.57;3.43;;;;;;;6.27;100.00;98649.22;5028674;28;20221;-60
2022/11/23 05:04:09;;;;;;;11.90;2.60;;;;;;;6.34;100.00;98646.28;5031289;28;20233;-60
2022/11/23 05:06:34;;;;;;;11.27;3.23;;;;;;;6.24;100.00;98649.41;5034009;28;20641;-60
2022/11/23 05:08:59;;;;;;;9.50;2.57;;;;;;;6.48;100.00;98650.59;5048904;28;20233;-61
2022/11/23 05:11:25;;;;;;;9.60;2.50;;;;;;;6.56;100.00;98646.66;5034221;28;20236;-61
2022/11/23 05:13:51;;;;;;;10.87;3.20;;;;;;;6.65;100.00;98645.25;5021528;28;20188;-61
2022/11/23 05:16:16;;;;;;;8.50;2.87;;;;;;;6.48;100.00;98650.59;5033641;28;20506;-60
2022/11/23 05:18:41;;;;;;;10.60;2.73;;;;;;;6.27;100.00;98651.75;5033423;28;20290;-61
2022/11/23 05:21:07;;;;;;;7.97;3.10;;;;;;;6.10;100.00;98654.50;5032046;28;20235;-60
2022/11/23 05:23:32;;;;;;;7.50;3.00;;;;;;;6.04;100.00;98657.41;5041242;28;20196;-60
2022/11/23 05:25:57;;;;;;;9.07;3.30;;;;;;;5.77;100.00;98656.38;5049527;28;20217;-63
2022/11/23 05:28:23;;;;;;;9.03;3.17;;;;;;;5.64;100.00;98657.97;5015898;28;20181;-61
2022/11/23 05:30:48;;;;;;;10.70;3.47;;;;;;;5.62;100.00;98657.25;5010294;28;20242;-60
2022/11/23 05:33:13;;;;;;;9.40;3.13;;;;;;;5.45;100.00;98659.00;5025737;28;20301;-60
2022/11/23 05:35:39;;;;;;;6.80;2.63;;;;;;;5.54;100.00;98667.06;5033608;28;20188;-60
2022/11/23 05:38:05;;;;;;;10.23;3.13;;;;;;;5.56;100.00;98662.72;5033373;28;20411;-60
2022/11/23 05:40:30;;;;;;;9.43;2.90;;;;;;;5.48;100.00;98666.50;5037158;28;20239;-60
2022/11/23 05:42:58;;;;;;;8.20;2.70;;;;;;;5.62;100.00;98672.56;5018680;28;20185;-61
2022/11/23 05:45:24;;;;;;;9.53;3.23;;;;;;;5.47;100.00;98674.22;5011821;28;20580;-61
2022/11/23 05:47:51;;;;;;;11.67;3.00;;;;;;;5.43;100.00;98668.50;5010915;28;20179;-62
2022/11/23 05:50:16;;;;;;;8.07;3.07;;;;;;;5.52;100.00;98674.81;5004825;28;20547;-61
2022/11/23 05:52:42;;;;;;;8.23;3.50;;;;;;;5.49;100.00;98680.91;5034247;28;20246;-61
2022/11/23 05:55:07;;;;;;;9.27;3.57;;;;;;;5.43;100.00;98681.25;5033325;28;20199;-60
2022/11/23 05:57:32;;;;;;;7.37;2.93;;;;;;;5.25;100.00;98682.28;5023834;28;20668;-61
2022/11/23 05:59:58;;;;;;;7.27;3.37;;;;;;;5.37;100.00;98684.16;5046692;28;20187;-61
2022/11/23 06:02:23;;;;;;;8.50;3.67;;;;;;;5.50;100.00;98695.28;5015428;28;20765;-61
2022/11/23 06:04:48;;;;;;;7.33;2.80;;;;;;;5.62;100.00;98691.22;5022738;28;20613;-61
2022/11/23 06:07:14;;;;;;;8.10;3.10;;;;;;;5.76;100.00;98690.44;5032578;28;20239;-62
2022/11/23 06:09:39;;;;;;;7.30;2.50;;;;;;;5.75;100.00;98682.88;5033204;28;20279;-61
2022/11/23 06:12:05;;;;;;;5.43;2.70;;;;;;;5.84;100.00;98676.41;5037204;28;20240;-67
2022/11/23 06:14:30;;;;;;;5.80;2.97;;;;;;;5.58;100.00;98683.84;5028772;28;20198;-63
2022/11/23 06:16:56;;;;;;;6.33;2.73;;;;;;;5.60;100.00;98684.56;5036129;28;20232;-61
2022/11/23 06:19:21;;;;;;;7.77;3.30;;;;;;;5.49;100.00;98687.72;5028311;28;20188;-61
2022/11/23 06:21:46;;;;;;;10.50;3.23;;;;;;;5.48;100.00;98684.38;5035925;28;20227;-60
2022/11/23 06:24:12;;;;;;;6.43;2.80;;;;;;;5.73;100.00;98685.53;5034939;28;20856;-61
2022/11/23 06:26:37;;;;;;;7.63;2.97;;;;;;;5.84;100.00;98690.00;5029903;28;20190;-60
2022/11/23 06:29:02;;;;;;;6.60;2.73;;;;;;;5.80;100.00;98689.38;5032774;28;20275;-61
2022/11/23 06:31:28;;;;;;;8.23;3.13;;;;;;;5.98;100.00;98691.78;5033718;28;20726;-62
2022/11/23 06:33:53;;;;;;;7.60;3.10;;;;;;;5.77;100.00;98692.09;5036569;28;20633;-61
2022/11/23 06:36:18;;;;;;;11.80;4.00;;;;;;;5.82;100.00;98694.38;5032011;28;20205;-61
2022/11/23 06:38:44;;;;;;;7.00;2.90;;;;;;;5.66;100.00;98699.53;5032697;28;20231;-60
2022/11/23 06:41:09;;;;;;;11.97;3.60;;;;;;;5.62;100.00;98696.34;5027904;28;20224;-61
2022/11/23 06:43:34;;;;;;;7.20;3.30;;;;;;;5.45;100.00;98707.47;5024091;28;20193;-60
2022/11/23 06:46:04;;;;;;;7.57;3.23;;;;;;;5.52;100.00;98705.41;5030951;28;20186;-60
2022/11/23 06:48:29;;;;;;;9.83;3.30;;;;;;;5.44;100.00;98705.03;5031725;28;20223;-65
2022/11/23 06:50:57;;;;;;;8.63;3.10;;;;;;;5.59;100.00;98713.53;5028621;28;20245;-59
2022/11/23 06:53:23;;;;;;;7.13;3.23;;;;;;;5.39;100.00;98700.16;5023797;28;20391;-63
2022/11/23 06:55:48;;;;;;;7.83;3.33;;;;;;;5.57;100.00;98711.09;5032774;28;20257;-60
2022/11/23 06:58:13;;;;;;;10.70;3.30;;;;;;;5.69;100.00;98712.09;5031339;28;20209;-62
2022/11/23 07:00:38;;;;;;;9.23;3.37;;;;;;;5.72;100.00;98708.56;5013890;28;20225;-60
2022/11/23 07:03:04;;;;;;;11.93;3.07;;;;;;;5.65;100.00;98719.09;5025704;28;20206;-61
2022/11/23 07:05:29;;;;;;;9.50;2.70;;;;;;;5.72;100.00;98711.94;5032461;28;20216;-60
2022/11/23 07:07:55;;;;;;;6.57;2.90;;;;;;;5.94;100.00;98713.25;5031419;28;20225;-60
2022/11/23 07:10:20;;;;;;;5.87;3.47;;;;;;;5.94;100.00;98713.25;5023766;28;20231;-60
2022/11/23 07:12:46;;;;;;;10.73;3.30;;;;;;;6.08;100.00;98715.88;5044951;28;20216;-61
2022/11/23 07:15:12;;;;;;;7.20;2.60;;;;;;;6.04;100.00;98716.13;5031906;28;20178;-61
2022/11/23 07:17:42;;;;;;;7.80;3.13;;;;;;;6.17;100.00;98718.81;5030823;28;20577;-58
2022/11/23 07:20:11;;;;;;;12.00;3.33;;;;;;;5.94;100.00;98723.47;5022223;28;20236;-69
2022/11/23 07:22:37;;;;;;;6.10;3.00;;;;;;;6.10;100.00;98716.63;5045629;28;20535;-65
2022/11/23 07:25:04;;;;;;;7.60;3.30;;;;;;;6.09;100.00;98726.91;5031215;28;20276;-64
2022/11/23 07:27:30;;;;;;;9.93;4.13;;;;;;;5.91;100.00;98723.66;5029972;28;20173;-60
2022/11/23 07:29:55;;;;;;;8.93;4.47;;;;;;;5.88;100.00;98724.66;5031922;28;20208;-63
2022/11/23 07:32:20;;;;;;;9.30;3.43;;;;;;;5.94;100.00;98733.69;5036672;28;20637;-60
2022/11/23 07:34:46;;;;;;;13.70;3.60;;;;;;;5.94;100.00;98724.31;5031631;28;20235;-61
2022/11/23 07:37:11;;;;;;;12.13;3.87;;;;;;;5.94;100.00;98739.63;5030722;28;20225;-61
2022/11/23 07:39:36;;;;;;;7.80;3.43;;;;;;;6.14;100.00;98730.84;5009886;28;20273;-61
2022/11/23 07:42:01;;;;;;;10.60;5.07;;;;;;;6.18;100.00;98733.19;5035930;28;20298;-66
2022/11/23 07:44:27;;;;;;;6.17;3.60;;;;;;;6.18;100.00;98741.69;5023731;28;20296;-61
2022/11/23 07:46:53;;;;;;;11.83;4.07;;;;;;;6.56;100.00;98730.94;5030611;28;20657;-61
2022/11/23 07:49:18;;;;;;;9.63;4.57;;;;;;;6.63;100.00;98732.19;5013909;28;20198;-62
2022/11/23 07:51:44;;;;;;;9.93;4.00;;;;;;;6.72;100.00;98732.56;5033592;28;20324;-61
2022/11/23 07:54:09;;;;;;;6.67;3.90;;;;;;;6.69;100.00;98741.25;5033369;28;20221;-61
2022/11/23 07:56:34;;;;;;;7.60;2.80;;;;;;;6.56;100.00;98745.44;5030778;28;20189;-61
2022/11/23 07:59:00;;;;;;;9.27;3.03;;;;;;;6.69;100.00;98740.44;5031279;28;20186;-61
2022/11/23 08:01:25;;;;;;;12.27;3.50;;;;;;;6.75;100.00;98732.41;5016632;28;20308;-61
2022/11/23 08:03:50;;;;;;;13.47;3.73;;;;;;;6.55;100.00;98738.69;5027148;28;20687;-61
2022/11/23 08:06:16;;;;;;;8.60;3.27;;;;;;;6.61;100.00;98740.88;5029382;28;20561;-64
2022/11/23 08:08:41;;;;;;;11.73;2.83;;;;;;;6.85;100.00;98740.34;5031011;28;20265;-61
2022/11/23 08:11:08;;;;;;;7.37;3.43;;;;;;;7.02;100.00;98732.44;5029638;28;20576;-62
2022/11/23 08:13:34;;;;;;;11.00;3.20;;;;;;;6.93;100.00;98733.84;5023562;28;20189;-61
2022/11/23 08:16:00;;;;;;;10.00;3.57;;;;;;;6.84;100.00;98733.56;5029022;28;20218;-61
2022/11/23 08:18:26;;;;;;;8.03;3.43;;;;;;;7.06;100.00;98738.19;5042402;28;20219;-61
2022/11/23 08:20:52;;;;;;;11.90;3.53;;;;;;;7.10;100.00;98730.22;5013895;28;20221;-61
2022/11/23 08:23:18;;;;;;;11.17;3.60;;;;;;;7.21;100.00;98727.00;5026718;28;20259;-60
2022/11/23 08:25:43;;;;;;;13.77;3.63;;;;;;;7.25;100.00;98728.44;5034961;28;20213;-61
2022/11/23 08:28:09;;;;;;;7.07;3.03;;;;;;;7.11;100.00;98721.63;5034181;28;20608;-61
2022/11/23 08:30:35;;;;;;;9.63;2.80;;;;;;;6.84;100.00;98734.38;4986059;28;20229;-60
2022/11/23 08:33:05;;;;;;;9.77;3.43;;;;;;;6.89;100.00;98741.78;5030406;28;20296;-60
2022/11/23 08:35:38;;;;;;;8.80;3.23;;;;;;;6.99;100.00;98735.19;5015905;28;20193;-63
2022/11/23 08:38:05;;;;;;;8.10;3.47;;;;;;;6.95;100.00;98734.53;5032267;28;20194;-61
2022/11/23 08:40:30;;;;;;;7.53;3.00;;;;;;;6.97;100.00;98736.19;5015620;28;20779;-60
2022/11/23 08:42:56;;;;;;;4.80;2.73;;;;;;;7.07;100.00;98735.53;5033598;28;20275;-61
2022/11/23 08:45:22;;;;;;;10.47;3.40;;;;;;;7.23;100.00;98735.41;5034220;28;20540;-61
2022/11/23 08:47:47;;;;;;;9.63;2.80;;;;;;;7.29;100.00;98735.94;5013138;28;20213;-60
2022/11/23 08:50:13;;;;;;;10.67;3.37;;;;;;;7.45;100.00;98733.22;5020014;28;20190;-60
2022/11/23 08:52:39;;;;;;;9.00;3.17;;;;;;;8.33;100.00;98730.06;5048421;28;20252;-60
2022/11/23 08:55:05;;;;;;;5.73;2.90;;;;;;;9.29;100.00;98732.06;5033152;28;20635;-61
2022/11/23 08:57:30;;;;;;;7.33;3.17;;;;;;;10.96;100.00;98726.59;5012645;28;20211;-60
2022/11/23 08:59:55;;;;;;;7.73;2.87;;;;;;;11.04;100.00;98731.97;5022130;28;20190;-60
2022/11/23 09:02:20;;;;;;;5.30;2.37;;;;;;;12.35;100.00;98724.94;5038878;28;20624;-60
2022/11/23 09:04:46;;;;;;;8.50;3.13;;;;;;;14.16;99.24;98733.28;5034054;28;20202;-61
2022/11/23 09:07:12;;;;;;;7.03;2.87;;;;;;;12.45;100.00;98737.88;5032070;28;20186;-62
2022/11/23 09:09:37;;;;;;;7.83;2.57;;;;;;;13.70;98.83;98727.94;5027817;28;20222;-61
2022/11/23 09:12:03;;;;;;;7.63;3.63;;;;;;;14.87;91.27;98731.13;5038757;28;20229;-61
2022/11/23 09:14:28;;;;;;;7.23;3.63;;;;;;;15.68;85.36;98733.81;5034430;28;20331;-62
2022/11/23 09:16:54;;;;;;;7.70;3.07;;;;;;;15.13;82.62;98722.66;5032488;28;20536;-62
2022/11/23 09:19:20;;;;;;;9.63;3.40;;;;;;;16.16;77.47;98732.56;5033566;28;20179;-61
2022/11/23 09:21:46;;;;;;;9.00;3.33;;;;;;;15.41;79.41;98732.97;5031815;28;20257;-60
2022/11/23 09:24:11;;;;;;;6.23;2.47;;;;;;;16.70;70.30;98729.75;5029908;28;20627;-61
2022/11/23 09:26:37;;;;;;;6.80;2.80;;;;;;;15.91;73.06;98732.41;5033112;28;20674;-61
2022/11/23 09:29:04;;;;;;;7.73;2.93;;;;;;;15.56;77.56;98734.06;5032110;28;20952;-61
2022/11/23 09:31:29;;;;;;;6.20;2.93;;;;;;;14.93;76.27;98734.91;5014360;28;20235;-61
2022/11/23 09:33:54;;;;;;;8.57;3.10;;;;;;;15.91;71.24;98740.19;5029039;28;20175;-61
2022/11/23 09:36:21;;;;;;;7.87;3.17;;;;;;;14.52;87.33;98746.41;5006399;28;20293;-61
2022/11/23 09:38:48;;;;;;;7.57;2.97;;;;;;;15.57;82.17;98747.84;5015420;28;20657;-61
2022/11/23 09:41:49;;;;;;;5.90;2.57;;;;;;;14.84;84.39;98754.72;5032149;28;20320;-62
2022/11/23 09:44:33;;;;;;;6.60;2.80;;;;;;;14.01;90.18;98760.56;5014168;28;20551;-60
2022/11/23 09:47:07;;;;;;;11.13;2.90;;;;;;;13.85;87.81;98756.78;5027387;28;20249;-61
2022/11/23 09:49:51;;;;;;;9.73;2.70;;;;;;;12.87;93.92;98746.31;5033121;28;20188;-63
2022/11/23 09:52:19;;;;;;;3.97;2.30;;;;;;;11.40;100.00;98762.63;5035301;28;20222;-63
2022/11/23 09:54:47;;;;;;;6.57;2.70;;;;;;;11.50;100.00;98748.13;5015514;28;20270;-60
2022/11/23 09:57:18;;;;;;;7.20;2.80;;;;;;;10.74;100.00;98753.16;5013674;28;20201;-61
2022/11/23 10:00:06;;;;;;;6.93;2.50;;;;;;;11.07;100.00;98741.22;5033573;28;20174;-62
2022/11/23 10:02:38;;;;;;;10.10;2.27;;;;;;;10.61;100.00;98755.88;4985086;28;20272;-61
2022/11/23 10:05:04;;;;;;;9.97;2.73;;;;;;;10.00;100.00;98752.59;5012530;28;20638;-61
2022/11/23 10:07:53;;;;;;;7.67;2.93;;;;;;;9.07;100.00;98750.69;5014352;28;20656;-61
2022/11/23 10:10:38;;;;;;;10.00;3.23;;;;;;;9.03;100.00;98744.97;5013822;28;20205;-61
2022/11/23 10:13:12;;;;;;;6.20;2.33;;;;;;;8.55;100.00;98744.84;5043895;28;20214;-61
2022/11/23 10:15:59;;;;;;;6.33;2.70;;;;;;;8.50;100.00;98740.03;5032695;28;20177;-59
2022/11/23 10:18:29;;;;;;;13.43;3.37;;;;;;;8.37;100.00;98745.16;5047521;28;20182;-61
2022/11/23 10:21:03;;;;;;;11.17;2.60;;;;;;;8.40;100.00;98744.94;5029441;28;20217;-61
2022/11/23 10:23:52;;;;;;;7.37;3.13;;;;;;;8.41;100.00;98748.31;5023532;28;20250;-61
2022/11/23 10:26:20;;;;;;;9.43;3.50;;;;;;;8.25;100.00;98743.41;5011290;28;20175;-64
2022/11/23 10:28:46;;;;;;;7.70;3.17;;;;;;;8.12;100.00;98743.38;5014713;28;20269;-60
2022/11/23 10:31:24;;;;;;;6.17;2.57;;;;;;;8.12;100.00;98738.25;5018003;28;20229;-61
2022/11/23 10:34:12;;;;;;;8.90;3.23;;;;;;;8.08;100.00;98739.41;5034338;28;20532;-61
2022/11/23 10:36:38;;;;;;;11.27;3.60;;;;;;;8.22;100.00;98731.63;5014374;28;20914;-61
2022/11/23 10:39:24;;;;;;;7.07;2.50;;;;;;;8.14;100.00;98739.00;5031368;28;20186;-62
2022/11/23 10:41:51;;;;;;;9.40;3.23;;;;;;;8.31;100.00;98727.63;5027848;28;20236;-62
2022/11/23 10:44:17;;;;;;;10.27;2.73;;;;;;;8.40;100.00;98724.44;5016174;28;20182;-61
2022/11/23 10:46:43;;;;;;;8.43;2.80;;;;;;;8.47;100.00;98729.16;5031976;28;20181;-61
2022/11/23 10:49:20;;;;;;;9.87;2.63;;;;;;;8.49;100.00;98729.91;5011413;28;20234;-61
2022/11/23 10:51:53;;;;;;;8.97;2.87;;;;;;;8.58;100.00;98723.31;5024021;28;20240;-62
2022/11/23 10:54:33;;;;;;;14.13;3.07;;;;;;;8.43;100.00;98718.28;5015432;28;20674;-62
2022/11/23 10:57:01;;;;;;;9.53;2.60;;;;;;;8.42;100.00;98721.75;5031442;28;20217;-61
2022/11/23 10:59:36;;;;;;;8.80;2.43;;;;;;;8.18;100.00;98717.38;5014241;28;20269;-60
2022/11/23 11:02:14;;;;;;;6.23;2.40;;;;;;;8.12;100.00;98714.41;5031430;28;20280;-61
2022/11/23 11:04:42;;;;;;;8.77;2.60;;;;;;;8.31;100.00;98708.84;5029398;28;20217;-60
2022/11/23 11:07:23;;;;;;;6.37;2.30;;;;;;;8.33;100.00;98709.59;5029225;28;20190;-61
2022/11/23 11:09:53;;;;;;;10.87;2.70;;;;;;;8.46;100.00;98704.44;5031589;28;20206;-63
2022/11/23 11:12:19;;;;;;;10.43;3.07;;;;;;;8.47;100.00;98698.41;5007684;28;20233;-61
2022/11/23 11:14:56;;;;;;;8.50;2.43;;;;;;;8.58;100.00;98693.38;5023486;28;20539;-61
2022/11/23 11:17:32;;;;;;;9.87;2.77;;;;;;;8.69;100.00;98690.88;5014586;28;20248;-61
2022/11/23 11:19:58;;;;;;;8.80;2.27;;;;;;;8.62;100.00;98682.00;5031368;28;20187;-62
2022/11/23 11:22:33;;;;;;;7.90;2.63;;;;;;;8.81;100.00;98676.41;5016708;28;20245;-62
2022/11/23 11:25:00;;;;;;;6.60;2.50;;;;;;;8.85;100.00;98677.81;5011608;28;20264;-63
2022/11/23 11:27:28;;;;;;;6.70;2.73;;;;;;;8.76;100.00;98667.38;5013531;28;20196;-61
2022/11/23 11:29:59;;;;;;;8.27;2.60;;;;;;;8.70;100.00;98666.09;5010436;28;20630;-62
2022/11/23 11:32:35;;;;;;;7.20;2.47;;;;;;;8.63;100.00;98657.19;5016402;28;20234;-61